Time;durP1;ratioP1;P1;durP2;ratioP2;P2;SDS_P1;SDS_P2;PMS_P1;PMS_P2;Temp;Humidity;BMP_temperature;BMP_pressure;BME280_temperature;BME280_humidity;BME280_pressure;Samples;Min_cycle;Max_cycle;Signal;HPM_P1;HPM_P2
2022/11/04 00:01:06;;;;;;;16.97;11.27;;;9.10;1.00;;;;;;6303449;28;20758;-55
2022/11/04 00:04:13;;;;;;;12.67;10.23;;;9.10;1.00;;;;;;6308744;28;20251;-55
2022/11/04 00:14:23;;;;;;;11.53;9.40;;;9.10;1.00;;;;;;6303954;28;20237;-54
2022/11/04 00:17:26;;;;;;;12.90;10.43;;;9.10;1.00;;;;;;6292922;28;20241;-55
2022/11/04 00:30:32;;;;;;;12.63;10.03;;;9.10;1.00;;;;;;6297265;28;20519;-54
2022/11/04 00:33:34;;;;;;;11.10;10.10;;;9.10;1.00;;;;;;6292081;28;20275;-55
2022/11/04 00:36:50;;;;;;;12.50;10.57;;;9.10;1.00;;;;;;6283580;28;20319;-54
2022/11/04 00:39:53;;;;;;;12.80;10.97;;;9.10;1.00;;;;;;6284561;28;20240;-53
2022/11/04 00:42:56;;;;;;;11.50;10.17;;;9.10;1.00;;;;;;6287696;28;20471;-53
2022/11/04 00:46:00;;;;;;;12.43;9.57;;;9.10;1.00;;;;;;6312763;28;20235;-53
2022/11/04 00:49:03;;;;;;;13.60;10.17;;;9.10;1.00;;;;;;6299656;28;20237;-54
2022/11/04 00:52:05;;;;;;;14.93;10.20;;;9.10;1.00;;;;;;6283852;28;20745;-54
2022/11/04 00:55:09;;;;;;;13.97;10.20;;;9.00;1.00;;;;;;6284155;28;20769;-54
2022/11/04 00:58:12;;;;;;;13.30;10.53;;;9.00;1.00;;;;;;6287095;28;20245;-54
2022/11/04 01:01:17;;;;;;;14.90;11.47;;;9.00;1.00;;;;;;6303543;28;20228;-53
2022/11/04 01:04:20;;;;;;;12.17;10.40;;;9.00;1.00;;;;;;6307994;28;20686;-54
2022/11/04 01:07:23;;;;;;;11.87;10.07;;;8.90;1.00;;;;;;6302254;28;20749;-54
2022/11/04 01:10:26;;;;;;;14.00;10.87;;;8.90;1.00;;;;;;6300950;28;20468;-54
2022/11/04 01:13:28;;;;;;;13.37;10.00;;;8.80;1.00;;;;;;6292843;28;20256;-55
2022/11/04 01:16:37;;;;;;;11.67;10.47;;;8.90;1.00;;;;;;6296410;28;20252;-53
2022/11/04 01:19:39;;;;;;;13.20;10.77;;;8.80;1.00;;;;;;6283057;28;20714;-53
2022/11/04 01:22:42;;;;;;;11.83;10.63;;;8.80;1.00;;;;;;6282015;28;20530;-54
2022/11/04 01:25:45;;;;;;;13.70;10.77;;;8.80;1.00;;;;;;6283159;28;20244;-55
2022/11/04 01:28:48;;;;;;;16.63;11.90;;;8.80;1.00;;;;;;6281563;28;20637;-53
2022/11/04 01:31:52;;;;;;;11.83;10.63;;;8.70;1.00;;;;;;6291990;28;20440;-54
2022/11/04 01:34:57;;;;;;;13.00;11.03;;;8.70;1.00;;;;;;6295336;28;20628;-55
2022/11/04 01:38:00;;;;;;;12.00;10.80;;;8.60;1.00;;;;;;6301158;28;20248;-54
2022/11/04 01:41:04;;;;;;;15.43;10.97;;;8.70;1.00;;;;;;6292808;28;20236;-56
2022/11/04 01:44:44;;;;;;;15.73;11.50;;;8.70;1.00;;;;;;6289037;28;20482;-54
2022/11/04 01:47:55;;;;;;;15.73;11.13;;;8.70;1.00;;;;;;6306058;28;20229;-54
2022/11/04 01:51:06;;;;;;;14.47;10.63;;;8.70;1.00;;;;;;6308065;28;20233;-54
2022/11/04 01:54:11;;;;;;;13.83;11.47;;;8.70;1.00;;;;;;6307015;28;20256;-54
2022/11/04 01:57:18;;;;;;;12.87;10.40;;;8.70;1.00;;;;;;6295936;28;20228;-54
2022/11/04 02:00:21;;;;;;;15.93;11.87;;;8.70;1.00;;;;;;6283917;28;20687;-53
2022/11/04 02:03:29;;;;;;;13.13;11.87;;;8.70;1.00;;;;;;6283666;28;20509;-53
2022/11/04 02:06:32;;;;;;;12.70;11.40;;;8.70;1.00;;;;;;6283049;28;20256;-58
2022/11/04 02:09:38;;;;;;;12.80;11.50;;;8.70;1.00;;;;;;6297641;28;20233;-54
2022/11/04 02:12:49;;;;;;;17.50;12.57;;;8.70;1.00;;;;;;6291385;28;20234;-54
2022/11/04 02:15:57;;;;;;;12.83;11.47;;;8.70;1.00;;;;;;6282893;28;20236;-53
2022/11/04 02:19:13;;;;;;;15.53;12.30;;;8.70;1.00;;;;;;6284299;28;20572;-54
2022/11/04 02:22:41;;;;;;;16.83;12.00;;;8.70;1.00;;;;;;6286223;28;20440;-54
2022/11/04 02:26:07;;;;;;;11.93;10.83;;;8.70;1.00;;;;;;6280732;28;20241;-54
2022/11/04 02:29:37;;;;;;;12.67;11.50;;;8.70;1.00;;;;;;6276719;28;20253;-56
2022/11/04 02:33:06;;;;;;;12.33;11.13;;;8.70;1.00;;;;;;6294878;28;20243;-53
2022/11/04 02:36:16;;;;;;;13.57;11.90;;;8.70;1.00;;;;;;6285498;28;20248;-55
2022/11/04 02:39:27;;;;;;;14.83;11.63;;;8.70;1.00;;;;;;6307222;28;20233;-54
2022/11/04 02:42:37;;;;;;;15.30;11.83;;;8.90;1.00;;;;;;6289364;28;20233;-53
2022/11/04 02:45:46;;;;;;;15.47;11.53;;;8.70;1.00;;;;;;6282083;28;20472;-54
2022/11/04 02:48:56;;;;;;;12.67;10.57;;;8.70;1.00;;;;;;6278805;28;20245;-54
2022/11/04 02:52:03;;;;;;;14.00;12.10;;;8.60;1.00;;;;;;6284427;28;20268;-54
2022/11/04 02:55:13;;;;;;;13.47;11.93;;;8.60;1.00;;;;;;6310021;28;20233;-54
2022/11/04 02:58:21;;;;;;;14.20;12.30;;;8.60;1.00;;;;;;6299473;28;20713;-53
2022/11/04 03:01:31;;;;;;;13.07;11.30;;;8.60;1.00;;;;;;6310868;28;20232;-54
2022/11/04 03:04:40;;;;;;;14.63;12.20;;;8.60;1.00;;;;;;6311332;28;20240;-53
2022/11/04 03:07:46;;;;;;;12.30;11.03;;;8.60;1.00;;;;;;6308662;28;20239;-53
2022/11/04 03:10:53;;;;;;;12.80;11.60;;;8.60;1.00;;;;;;6294989;28;20824;-56
2022/11/04 03:14:01;;;;;;;16.23;11.93;;;8.60;1.00;;;;;;6302302;28;20236;-53
2022/11/04 03:17:14;;;;;;;12.80;11.50;;;8.70;1.00;;;;;;6308960;28;20228;-54
2022/11/04 03:20:21;;;;;;;11.53;10.43;;;8.70;1.00;;;;;;6297984;28;20710;-53
2022/11/04 03:23:24;;;;;;;11.90;10.70;;;8.80;1.00;;;;;;6284335;28;20726;-54
2022/11/04 03:26:32;;;;;;;16.07;11.77;;;8.70;1.00;;;;;;6285020;28;20244;-55
2022/11/04 03:29:40;;;;;;;16.17;11.90;;;8.70;1.00;;;;;;6284293;28;20233;-54
2022/11/04 03:32:51;;;;;;;13.93;12.27;;;8.70;1.00;;;;;;6291387;28;20241;-53
2022/11/04 03:35:55;;;;;;;15.43;11.70;;;8.80;1.00;;;;;;6284213;28;20698;-53
2022/11/04 03:38:58;;;;;;;12.93;11.67;;;8.80;1.00;;;;;;6285251;28;20434;-53
2022/11/04 03:42:18;;;;;;;12.17;10.87;;;8.80;1.00;;;;;;6298855;28;20232;-53
2022/11/04 03:45:23;;;;;;;11.93;10.53;;;8.70;1.00;;;;;;6285669;28;20252;-54
2022/11/04 03:48:34;;;;;;;17.33;12.23;;;8.80;1.00;;;;;;6284789;28;20244;-53
2022/11/04 03:51:37;;;;;;;16.13;12.97;;;8.80;1.00;;;;;;6295876;28;20257;-55
2022/11/04 03:54:40;;;;;;;13.67;12.27;;;8.80;1.00;;;;;;6285878;28;20236;-53
2022/11/04 03:57:52;;;;;;;13.90;11.97;;;8.80;1.00;;;;;;6291535;28;20237;-55
2022/11/04 04:01:03;;;;;;;16.50;13.20;;;8.80;1.00;;;;;;6285102;28;20419;-55
2022/11/04 04:04:15;;;;;;;12.80;10.47;;;8.80;1.00;;;;;;6281500;28;20254;-54
2022/11/04 04:07:24;;;;;;;15.13;12.43;;;8.80;1.00;;;;;;6290062;28;20486;-53
2022/11/04 04:10:40;;;;;;;18.17;13.10;;;9.00;1.00;;;;;;6296015;28;20225;-54
2022/11/04 04:14:00;;;;;;;15.43;12.33;;;8.80;1.00;;;;;;6291883;28;20237;-54
2022/11/04 04:17:07;;;;;;;17.70;12.17;;;8.80;1.00;;;;;;6283800;28;20729;-54
2022/11/04 04:20:20;;;;;;;15.80;12.67;;;8.80;1.00;;;;;;6283242;28;20241;-54
2022/11/04 04:30:12;;;;;;;14.50;12.80;;;8.80;1.00;;;;;;6284576;28;20256;-54
2022/11/04 04:33:18;;;;;;;14.77;13.10;;;8.90;1.00;;;;;;6279494;28;20237;-54
2022/11/04 04:36:26;;;;;;;13.33;11.93;;;8.80;1.00;;;;;;6289629;28;20230;-53
2022/11/04 04:46:37;;;;;;;14.00;12.60;;;8.90;1.00;;;;;;6290995;28;20241;-54
2022/11/04 04:49:49;;;;;;;15.80;13.67;;;8.90;1.00;;;;;;6300303;28;20598;-55
2022/11/04 04:52:56;;;;;;;14.53;12.60;;;9.00;1.00;;;;;;6300829;28;20272;-54
2022/11/04 04:55:59;;;;;;;16.83;12.20;;;9.00;1.00;;;;;;6288675;28;20385;-57
2022/11/04 04:59:02;;;;;;;16.90;12.30;;;9.00;1.00;;;;;;6288307;28;20236;-54
2022/11/04 05:02:04;;;;;;;17.67;12.93;;;9.00;1.00;;;;;;6300227;28;20236;-55
2022/11/04 05:05:08;;;;;;;14.17;12.70;;;9.00;1.00;;;;;;6289768;28;20233;-55
2022/11/04 05:08:12;;;;;;;13.77;12.23;;;9.00;1.00;;;;;;6291346;28;20249;-55
2022/11/04 05:11:15;;;;;;;14.97;12.60;;;9.10;1.00;;;;;;6299956;28;20370;-56
2022/11/04 05:14:20;;;;;;;15.50;12.37;;;9.10;1.00;;;;;;6293094;28;20303;-53
2022/11/04 05:17:23;;;;;;;17.23;13.07;;;9.10;1.00;;;;;;6306056;28;20224;-53
2022/11/04 05:20:27;;;;;;;13.07;11.87;;;9.10;1.00;;;;;;6298355;28;20614;-55
2022/11/04 05:23:32;;;;;;;18.37;12.93;;;9.10;1.00;;;;;;6288052;28;20341;-54
2022/11/04 05:26:38;;;;;;;20.13;13.10;;;9.10;1.00;;;;;;6290445;28;20711;-54
2022/11/04 05:29:42;;;;;;;19.13;13.53;;;9.10;1.00;;;;;;6291834;28;20710;-53
2022/11/04 05:32:45;;;;;;;16.20;12.73;;;9.10;1.00;;;;;;6291329;28;20724;-54
2022/11/04 05:35:48;;;;;;;17.90;12.97;;;9.10;1.00;;;;;;6296397;28;20237;-53
2022/11/04 05:38:54;;;;;;;22.17;13.10;;;9.10;1.00;;;;;;6274263;28;20229;-56
2022/11/04 05:41:57;;;;;;;13.73;12.33;;;9.20;1.00;;;;;;6304914;28;20684;-55
2022/11/04 05:45:00;;;;;;;15.17;12.87;;;9.20;1.00;;;;;;6284817;28;20225;-53
2022/11/04 05:48:05;;;;;;;15.00;12.63;;;9.20;1.00;;;;;;6288799;28;20240;-54
2022/11/04 05:51:13;;;;;;;12.97;11.60;;;9.20;1.00;;;;;;6299768;28;20241;-53
2022/11/04 05:54:17;;;;;;;15.23;12.33;;;9.20;1.00;;;;;;6290636;28;20237;-55
2022/11/04 05:57:20;;;;;;;12.60;11.40;;;9.20;1.00;;;;;;6296811;28;20235;-55
2022/11/04 06:00:23;;;;;;;15.37;13.13;;;9.30;1.00;;;;;;6303321;28;20239;-54
2022/11/04 06:03:25;;;;;;;15.60;12.87;;;9.20;1.00;;;;;;6298978;28;20805;-54
2022/11/04 06:06:31;;;;;;;14.17;12.67;;;9.30;1.00;;;;;;6290262;28;20228;-53
2022/11/04 06:09:38;;;;;;;16.07;12.90;;;9.20;1.00;;;;;;6300814;28;20237;-54
2022/11/04 06:12:41;;;;;;;13.37;12.03;;;9.20;1.00;;;;;;6295995;28;20230;-53
2022/11/04 06:15:44;;;;;;;14.13;12.93;;;9.20;1.00;;;;;;6295959;28;20293;-53
2022/11/04 06:18:47;;;;;;;14.33;12.83;;;9.20;1.00;;;;;;6298494;27;20242;-54
2022/11/04 06:21:50;;;;;;;17.57;13.47;;;9.20;1.00;;;;;;6295771;28;20275;-56
2022/11/04 06:24:54;;;;;;;13.83;12.53;;;9.20;1.00;;;;;;6301768;28;20706;-54
2022/11/04 06:27:57;;;;;;;16.03;13.43;;;9.30;1.00;;;;;;6288261;28;20737;-50
2022/11/04 06:31:01;;;;;;;14.30;12.90;;;9.30;1.00;;;;;;6293728;28;20305;-53
2022/11/04 06:34:04;;;;;;;14.20;12.10;;;9.30;1.00;;;;;;6305351;28;20229;-54
2022/11/04 06:37:08;;;;;;;15.80;13.90;;;9.40;1.00;;;;;;6309115;28;20240;-54
2022/11/04 06:40:12;;;;;;;14.60;13.13;;;9.40;1.00;;;;;;6302759;28;20238;-55
2022/11/04 06:43:18;;;;;;;17.27;14.00;;;9.40;1.00;;;;;;6296694;28;20242;-53
2022/11/04 06:46:26;;;;;;;18.80;14.87;;;9.50;1.00;;;;;;6298605;28;20232;-53
2022/11/04 06:49:29;;;;;;;15.90;14.20;;;9.50;1.00;;;;;;6293049;28;20297;-54
2022/11/04 06:52:32;;;;;;;19.93;15.17;;;9.60;1.00;;;;;;6295737;28;20831;-55
2022/11/04 06:55:44;;;;;;;17.97;14.70;;;9.60;1.00;;;;;;6297501;28;20857;-54
2022/11/04 06:58:48;;;;;;;16.67;14.10;;;9.60;1.00;;;;;;6301071;28;20541;-54
2022/11/04 07:01:51;;;;;;;16.27;14.47;;;9.60;1.00;;;;;;6302328;28;20225;-53
2022/11/04 07:04:55;;;;;;;16.10;14.40;;;9.70;1.00;;;;;;6284583;28;20690;-55
2022/11/04 07:08:10;;;;;;;20.37;14.90;;;9.70;1.00;;;;;;6298515;28;20229;-54
2022/11/04 07:11:15;;;;;;;15.93;14.23;;;9.70;1.00;;;;;;6310193;28;20601;-54
2022/11/04 07:14:18;;;;;;;16.13;14.43;;;9.80;1.00;;;;;;6304804;28;20600;-54
2022/11/04 07:17:20;;;;;;;15.60;13.80;;;9.90;1.00;;;;;;6289828;28;20291;-53
2022/11/04 07:20:23;;;;;;;16.30;14.23;;;9.90;1.00;;;;;;6296597;28;20780;-55
2022/11/04 07:23:26;;;;;;;24.27;15.30;;;10.00;1.00;;;;;;6297116;28;20266;-54
2022/11/04 07:26:31;;;;;;;16.53;14.77;;;10.00;1.00;;;;;;6305376;28;20321;-53
2022/11/04 07:29:34;;;;;;;18.37;16.37;;;10.00;1.00;;;;;;6301546;28;20237;-54
2022/11/04 07:32:36;;;;;;;17.67;14.93;;;10.00;1.00;;;;;;6296141;28;20281;-54
2022/11/04 07:35:39;;;;;;;18.73;14.63;;;10.00;1.00;;;;;;6290531;28;20237;-53
2022/11/04 07:38:46;;;;;;;17.13;15.37;;;10.10;1.00;;;;;;6305383;28;20232;-53
2022/11/04 07:41:50;;;;;;;18.37;15.00;;;10.10;1.00;;;;;;6287273;28;20236;-53
2022/11/04 07:45:04;;;;;;;19.03;16.23;;;10.20;1.00;;;;;;6295917;28;20309;-54
2022/11/04 07:48:07;;;;;;;17.90;16.03;;;10.20;1.00;;;;;;6301510;28;20557;-53
2022/11/04 07:51:13;;;;;;;17.47;15.57;;;10.30;1.00;;;;;;6307216;28;20255;-56
2022/11/04 07:54:16;;;;;;;20.93;16.17;;;10.40;1.00;;;;;;6292831;28;20248;-55
2022/11/04 07:57:21;;;;;;;18.20;15.93;;;10.50;1.00;;;;;;6289868;28;20235;-53
2022/11/04 08:00:24;;;;;;;20.30;15.27;;;10.50;1.00;;;;;;6301694;28;20608;-54
2022/11/04 08:03:27;;;;;;;17.20;15.43;;;10.70;1.00;;;;;;6288270;28;20594;-58
2022/11/04 08:06:30;;;;;;;23.40;15.07;;;10.80;1.00;;;;;;6302370;28;20267;-53
2022/11/04 08:09:35;;;;;;;16.70;15.20;;;10.90;1.00;;;;;;6292678;28;20319;-53
2022/11/04 08:12:40;;;;;;;17.17;14.10;;;11.00;1.00;;;;;;6300537;28;20394;-53
2022/11/04 08:15:42;;;;;;;16.70;14.43;;;11.10;1.00;;;;;;6285624;28;20225;-54
2022/11/04 08:18:47;;;;;;;18.17;14.83;;;11.10;1.00;;;;;;6293728;28;20514;-52
2022/11/04 08:21:50;;;;;;;14.40;12.90;;;11.10;1.00;;;;;;6298976;28;20237;-54
2022/11/04 08:24:53;;;;;;;21.83;14.77;;;11.20;1.00;;;;;;6299858;28;20502;-54
2022/11/04 08:27:58;;;;;;;15.77;14.23;;;11.20;1.00;;;;;;6300638;28;20243;-54
2022/11/04 08:31:05;;;;;;;16.70;14.20;;;11.20;1.00;;;;;;6288759;28;20704;-53
2022/11/04 08:34:09;;;;;;;18.30;13.83;;;11.30;1.00;;;;;;6295034;28;20422;-53
2022/11/04 08:37:14;;;;;;;16.00;14.10;;;11.30;1.00;;;;;;6292393;28;20232;-55
2022/11/04 08:40:17;;;;;;;16.60;14.47;;;11.30;1.00;;;;;;6298302;28;20228;-54
2022/11/04 08:43:22;;;;;;;16.23;14.33;;;11.30;1.00;;;;;;6294723;28;20240;-54
2022/11/04 08:46:25;;;;;;;17.33;13.83;;;11.30;1.00;;;;;;6295638;28;20242;-53
2022/11/04 08:49:27;;;;;;;15.53;14.03;;;11.30;1.00;;;;;;6290185;28;20244;-53
2022/11/04 08:52:30;;;;;;;14.77;13.40;;;11.40;1.00;;;;;;6293193;28;20240;-53
2022/11/04 08:55:33;;;;;;;17.97;13.03;;;11.40;1.00;;;;;;6299755;28;20238;-54
2022/11/04 08:58:37;;;;;;;14.60;13.10;;;11.50;1.00;;;;;;6298991;28;20248;-57
2022/11/04 09:01:40;;;;;;;14.33;12.83;;;11.50;1.00;;;;;;6297720;28;20248;-55
2022/11/04 09:04:43;;;;;;;13.20;12.00;;;11.60;1.00;;;;;;6294285;28;20363;-54
2022/11/04 09:07:46;;;;;;;13.43;11.97;;;11.60;1.00;;;;;;6291838;28;20228;-53
2022/11/04 09:10:49;;;;;;;12.70;11.40;;;11.60;1.00;;;;;;6287804;28;20308;-53
2022/11/04 09:13:53;;;;;;;13.00;11.27;;;11.60;1.00;;;;;;6282387;28;20233;-53
2022/11/04 09:16:56;;;;;;;11.83;10.63;;;11.70;1.00;;;;;;6292191;28;20688;-49
2022/11/04 09:19:59;;;;;;;11.70;10.47;;;11.70;1.00;;;;;;6303194;28;20228;-54
2022/11/04 09:23:02;;;;;;;11.80;10.70;;;11.70;1.00;;;;;;6288816;28;20656;-53
2022/11/04 09:26:15;;;;;;;11.80;10.10;;;11.80;1.00;;;;;;6295089;28;20229;-53
2022/11/04 09:29:19;;;;;;;13.10;10.53;;;11.80;1.00;;;;;;6294796;28;20509;-53
2022/11/04 09:32:22;;;;;;;11.10;9.90;;;11.80;1.00;;;;;;6302271;28;20236;-53
2022/11/04 09:35:26;;;;;;;12.03;10.83;;;11.80;1.00;;;;;;6307381;28;20241;-54
2022/11/04 09:38:29;;;;;;;12.67;10.70;;;11.90;1.00;;;;;;6288654;28;20520;-54
2022/11/04 09:41:50;;;;;;;11.67;10.53;;;11.80;1.00;;;;;;6301790;28;20263;-54
2022/11/04 09:44:59;;;;;;;10.57;9.57;;;11.90;1.00;;;;;;6301533;28;20231;-53
2022/11/04 09:48:31;;;;;;;12.90;10.03;;;12.00;1.00;;;;;;6304892;28;20263;-54
2022/11/04 09:51:35;;;;;;;13.50;9.77;;;12.00;1.00;;;;;;6301868;28;20229;-56
2022/11/04 09:55:05;;;;;;;10.23;9.33;;;12.10;1.00;;;;;;6297396;28;20264;-54
2022/11/04 09:58:11;;;;;;;11.27;9.97;;;12.10;1.00;;;;;;6299205;28;20251;-57
2022/11/04 10:01:31;;;;;;;12.27;10.17;;;12.10;1.00;;;;;;6302989;28;20302;-55
2022/11/04 10:04:47;;;;;;;10.27;9.27;;;12.10;1.00;;;;;;6306500;28;20917;-53
2022/11/04 10:08:17;;;;;;;10.57;9.50;;;12.10;1.00;;;;;;6297871;28;20229;-54
2022/11/04 10:11:28;;;;;;;11.27;10.10;;;12.10;1.00;;;;;;6303070;28;20235;-54
2022/11/04 10:14:47;;;;;;;10.90;9.90;;;12.10;1.00;;;;;;6294100;28;20407;-54
2022/11/04 10:18:06;;;;;;;10.67;9.77;;;12.00;1.00;;;;;;6305607;28;20260;-54
2022/11/04 10:21:21;;;;;;;10.60;9.53;;;12.00;1.00;;;;;;6298188;28;20233;-53
2022/11/04 10:24:35;;;;;;;10.77;9.77;;;12.00;1.00;;;;;;6301262;28;20857;-55
2022/11/04 10:27:41;;;;;;;11.23;10.13;;;12.00;1.00;;;;;;6308064;28;20236;-55
2022/11/04 10:30:47;;;;;;;10.30;9.27;;;12.00;1.00;;;;;;6302683;28;20812;-54
2022/11/04 10:33:55;;;;;;;11.43;9.97;;;12.00;1.00;;;;;;6301510;28;20237;-54
2022/11/04 10:36:58;;;;;;;10.43;9.53;;;12.00;1.00;;;;;;6292267;28;20776;-55
2022/11/04 10:40:23;;;;;;;11.07;10.00;;;12.10;1.00;;;;;;6292285;28;20239;-54
2022/11/04 10:43:31;;;;;;;10.73;9.70;;;12.10;1.00;;;;;;6308738;28;20243;-54
2022/11/04 10:46:44;;;;;;;11.57;10.57;;;12.10;1.00;;;;;;6307049;28;20308;-53
2022/11/04 10:50:09;;;;;;;10.97;10.03;;;12.00;1.00;;;;;;6308906;28;20237;-54
2022/11/04 10:53:33;;;;;;;10.00;9.23;;;12.10;1.00;;;;;;6297493;28;20240;-53
2022/11/04 10:56:41;;;;;;;10.83;9.87;;;12.10;1.00;;;;;;6307930;28;20240;-55
2022/11/04 10:59:51;;;;;;;10.87;10.03;;;12.10;1.00;;;;;;6309569;28;20225;-53
2022/11/04 11:02:54;;;;;;;11.63;10.63;;;12.10;1.00;;;;;;6302081;28;20237;-55
2022/11/04 11:06:21;;;;;;;12.50;11.33;;;12.00;1.00;;;;;;6305269;28;20373;-54
2022/11/04 11:09:28;;;;;;;15.00;13.40;;;12.10;1.00;;;;;;6292415;28;20244;-53
2022/11/04 11:12:39;;;;;;;14.23;13.00;;;12.00;1.00;;;;;;6310917;28;20375;-53
2022/11/04 11:16:10;;;;;;;14.90;13.47;;;12.00;1.00;;;;;;6294442;28;20241;-53
2022/11/04 11:19:17;;;;;;;14.47;13.27;;;12.00;1.00;;;;;;6295286;28;20244;-54
2022/11/04 11:22:38;;;;;;;14.60;12.23;;;12.00;1.00;;;;;;6298398;28;20313;-55
2022/11/04 11:25:49;;;;;;;12.37;11.37;;;12.00;1.00;;;;;;6299409;28;20233;-54
2022/11/04 11:28:56;;;;;;;12.03;11.03;;;12.00;1.00;;;;;;6299907;28;20232;-54
2022/11/04 11:32:01;;;;;;;11.63;10.33;;;12.00;1.00;;;;;;6291111;28;20233;-53
2022/11/04 11:35:06;;;;;;;10.27;9.50;;;11.90;1.00;;;;;;6304749;28;20241;-54
2022/11/04 11:38:21;;;;;;;10.77;9.77;;;11.90;1.00;;;;;;6298110;28;20288;-53
2022/11/04 11:41:30;;;;;;;11.20;10.33;;;11.80;1.00;;;;;;6300868;28;20230;-55
2022/11/04 11:44:41;;;;;;;10.90;9.97;;;11.80;1.00;;;;;;6289976;28;20241;-53
2022/11/04 11:47:45;;;;;;;11.43;10.33;;;11.70;1.00;;;;;;6291112;28;20705;-57
2022/11/04 11:50:57;;;;;;;11.93;10.93;;;11.70;1.00;;;;;;6300247;28;20225;-53
2022/11/04 11:54:19;;;;;;;11.40;10.50;;;11.70;1.00;;;;;;6296378;28;20622;-55
2022/11/04 11:57:35;;;;;;;11.67;10.73;;;11.60;1.00;;;;;;6304014;28;20491;-53
2022/11/04 12:00:45;;;;;;;10.17;9.23;;;11.60;1.00;;;;;;6286421;28;20226;-53
2022/11/04 12:03:53;;;;;;;12.20;11.07;;;11.60;1.00;;;;;;6286096;28;20241;-54
2022/11/04 12:07:26;;;;;;;11.67;10.77;;;11.60;1.00;;;;;;6294549;28;20245;-53
2022/11/04 12:11:00;;;;;;;11.90;10.90;;;11.60;1.00;;;;;;6298398;27;20318;-54
2022/11/04 12:14:10;;;;;;;12.40;11.30;;;11.60;1.00;;;;;;6295154;28;20229;-53
2022/11/04 12:17:24;;;;;;;11.87;10.87;;;11.60;1.00;;;;;;6300564;28;20244;-53
2022/11/04 12:20:41;;;;;;;12.40;11.27;;;11.60;1.00;;;;;;6297832;28;20236;-53
2022/11/04 12:23:52;;;;;;;13.37;11.97;;;11.60;1.00;;;;;;6297329;28;20246;-53
2022/11/04 12:27:11;;;;;;;11.00;10.30;;;11.50;1.00;;;;;;6299142;28;20234;-54
2022/11/04 12:30:18;;;;;;;12.43;11.47;;;11.60;1.00;;;;;;6282983;28;20816;-55
2022/11/04 12:33:35;;;;;;;12.37;11.47;;;11.50;1.00;;;;;;6289001;28;20701;-53
2022/11/04 12:36:59;;;;;;;15.03;13.63;;;11.60;1.00;;;;;;6299693;28;20248;-54
2022/11/04 12:40:17;;;;;;;15.47;14.17;;;11.50;1.00;;;;;;6294974;28;20229;-53
2022/11/04 12:43:29;;;;;;;14.57;13.37;;;11.50;1.00;;;;;;6295219;28;20240;-54
2022/11/04 12:46:37;;;;;;;13.87;12.73;;;11.50;1.00;;;;;;6296219;28;20221;-53
2022/11/04 12:50:21;;;;;;;14.97;13.70;;;11.50;1.00;;;;;;6285912;28;20240;-54
2022/11/04 12:53:59;;;;;;;13.77;12.70;;;11.50;1.00;;;;;;6268725;28;20233;-55
2022/11/04 12:57:15;;;;;;;16.00;14.47;;;11.50;1.00;;;;;;6289762;28;20237;-54
2022/11/04 13:00:23;;;;;;;15.43;13.97;;;11.50;1.00;;;;;;6282834;28;20244;-55
2022/11/04 13:03:32;;;;;;;14.87;13.50;;;11.50;1.00;;;;;;6278362;28;20260;-53
2022/11/04 13:06:40;;;;;;;16.77;15.20;;;11.50;1.00;;;;;;6263774;28;20244;-54
2022/11/04 13:09:46;;;;;;;16.57;15.23;;;11.40;1.00;;;;;;6274069;28;20245;-52
2022/11/04 13:12:53;;;;;;;18.23;15.60;;;11.40;1.00;;;;;;6269108;28;20372;-54
2022/11/04 13:16:06;;;;;;;17.33;15.83;;;11.40;1.00;;;;;;6284237;28;20248;-53
2022/11/04 13:19:20;;;;;;;14.93;13.80;;;11.40;1.00;;;;;;6271819;28;20264;-53
2022/11/04 13:22:27;;;;;;;14.67;13.30;;;11.40;1.00;;;;;;6268037;28;20248;-54
2022/11/04 13:25:34;;;;;;;16.97;15.43;;;11.40;1.00;;;;;;6282459;28;20260;-54
2022/11/04 13:28:40;;;;;;;15.00;13.23;;;11.40;1.00;;;;;;6274156;28;20236;-52
2022/11/04 13:32:04;;;;;;;14.03;12.73;;;11.40;1.00;;;;;;6285864;28;20226;-54
2022/11/04 13:35:18;;;;;;;13.20;11.70;;;11.40;1.00;;;;;;6290396;28;20257;-54
2022/11/04 13:38:25;;;;;;;12.40;11.50;;;11.30;1.00;;;;;;6294874;28;20233;-55
2022/11/04 13:41:40;;;;;;;12.73;11.60;;;11.30;1.00;;;;;;6301519;28;20236;-52
2022/11/04 13:44:45;;;;;;;12.00;11.13;;;11.40;1.00;;;;;;6297627;28;20233;-55
2022/11/04 13:47:52;;;;;;;10.97;10.23;;;11.30;1.00;;;;;;6283768;28;20232;-53
2022/11/04 13:50:59;;;;;;;11.60;10.70;;;11.30;1.00;;;;;;6300485;28;20232;-54
2022/11/04 13:54:03;;;;;;;11.73;10.83;;;11.20;1.00;;;;;;6298814;28;20234;-55
2022/11/04 13:57:09;;;;;;;12.47;11.37;;;11.20;1.00;;;;;;6297190;28;20255;-53
2022/11/04 14:00:24;;;;;;;12.90;11.50;;;11.20;1.00;;;;;;6292793;28;20245;-53
2022/11/04 14:03:52;;;;;;;12.30;11.30;;;11.20;1.00;;;;;;6300106;28;20236;-54
2022/11/04 14:06:58;;;;;;;12.60;11.60;;;11.30;1.00;;;;;;6297530;28;20486;-52
2022/11/04 14:10:02;;;;;;;12.33;11.43;;;11.30;1.00;;;;;;6306797;28;20243;-53
2022/11/04 14:13:43;;;;;;;12.27;11.37;;;11.30;1.00;;;;;;6282279;28;20241;-54
2022/11/04 14:16:46;;;;;;;12.37;11.43;;;11.30;1.00;;;;;;6299387;28;20233;-53
2022/11/04 14:19:58;;;;;;;12.93;11.63;;;11.30;1.00;;;;;;6299613;28;20237;-53
2022/11/04 14:23:03;;;;;;;12.60;11.60;;;11.40;1.00;;;;;;6294608;28;20241;-56
2022/11/04 14:26:09;;;;;;;13.00;12.00;;;11.40;1.00;;;;;;6300018;28;20233;-53
2022/11/04 14:29:23;;;;;;;12.97;11.73;;;11.40;1.00;;;;;;6301085;28;20229;-53
2022/11/04 14:32:31;;;;;;;12.87;11.73;;;11.40;1.00;;;;;;6300687;28;20491;-53
2022/11/04 14:35:36;;;;;;;11.60;10.80;;;11.50;1.00;;;;;;6297446;28;20388;-54
2022/11/04 14:38:39;;;;;;;12.47;11.47;;;11.50;1.00;;;;;;6306636;28;20620;-53
2022/11/04 14:41:54;;;;;;;12.80;11.70;;;11.50;1.00;;;;;;6299857;28;20227;-53
2022/11/04 14:44:59;;;;;;;14.00;12.90;;;11.50;1.00;;;;;;6307584;28;20240;-54
2022/11/04 14:48:12;;;;;;;14.00;12.80;;;11.50;1.00;;;;;;6311540;28;20233;-55
2022/11/04 14:51:26;;;;;;;16.60;15.13;;;11.40;1.00;;;;;;6299701;28;20232;-53
2022/11/04 14:54:33;;;;;;;15.37;13.97;;;11.40;1.00;;;;;;6291552;28;20232;-53
2022/11/04 14:57:38;;;;;;;14.03;12.63;;;11.30;1.00;;;;;;6299785;27;20237;-55
2022/11/04 15:00:55;;;;;;;14.07;12.83;;;11.30;1.00;;;;;;6295102;28;20235;-55
2022/11/04 15:04:05;;;;;;;13.73;12.53;;;11.30;1.00;;;;;;6302940;28;20756;-53
2022/11/04 15:07:33;;;;;;;16.50;14.80;;;11.20;1.00;;;;;;6291821;28;20233;-54
2022/11/04 15:10:36;;;;;;;13.70;12.60;;;11.20;1.00;;;;;;6308901;28;20609;-56
2022/11/04 15:13:45;;;;;;;16.90;15.30;;;11.20;1.00;;;;;;6309021;28;20240;-54
2022/11/04 15:16:52;;;;;;;15.80;14.60;;;11.20;1.00;;;;;;6292448;28;20234;-52
2022/11/04 15:19:59;;;;;;;16.77;15.27;;;11.10;1.00;;;;;;6291872;28;20249;-53
2022/11/04 15:23:07;;;;;;;15.03;13.90;;;11.10;1.00;;;;;;6294824;28;20241;-53
2022/11/04 15:26:22;;;;;;;14.30;13.10;;;11.10;1.00;;;;;;6305564;28;20719;-54
2022/11/04 15:29:32;;;;;;;13.57;12.47;;;11.10;1.00;;;;;;6300921;28;20229;-61
2022/11/04 15:32:58;;;;;;;12.50;11.50;;;11.00;1.00;;;;;;6290069;28;20829;-53
2022/11/04 15:36:01;;;;;;;12.27;11.17;;;11.00;1.00;;;;;;6279215;28;20404;-53
2022/11/04 15:39:14;;;;;;;11.80;10.90;;;11.00;1.00;;;;;;6298635;28;20418;-53
2022/11/04 15:42:38;;;;;;;11.27;10.30;;;11.00;1.00;;;;;;6297907;28;20241;-54
2022/11/04 15:45:54;;;;;;;12.27;11.37;;;11.00;1.00;;;;;;6300986;28;20260;-55
2022/11/04 15:49:04;;;;;;;10.60;10.00;;;11.00;1.00;;;;;;6300720;28;20240;-54
2022/11/04 15:52:12;;;;;;;11.90;11.00;;;10.90;1.00;;;;;;6301341;28;20229;-55
2022/11/04 15:55:22;;;;;;;12.07;11.07;;;10.90;1.00;;;;;;6285952;28;20233;-54
2022/11/04 15:58:27;;;;;;;12.60;11.60;;;10.90;1.00;;;;;;6304675;28;20228;-53
2022/11/04 16:01:31;;;;;;;12.47;11.40;;;10.90;1.00;;;;;;6309090;28;20224;-55
2022/11/04 16:04:34;;;;;;;12.80;11.80;;;10.90;1.00;;;;;;6300416;28;20233;-53
2022/11/04 16:07:39;;;;;;;12.90;11.60;;;10.90;1.00;;;;;;6299022;28;20300;-53
2022/11/04 16:10:43;;;;;;;11.70;10.77;;;10.90;1.00;;;;;;6299816;28;20234;-55
2022/11/04 16:13:47;;;;;;;12.93;11.60;;;10.80;1.00;;;;;;6296884;28;20769;-53
2022/11/04 16:16:52;;;;;;;13.87;12.57;;;10.80;1.00;;;;;;6301686;28;20272;-54
2022/11/04 16:19:58;;;;;;;12.23;11.07;;;10.80;1.00;;;;;;6300915;28;20233;-53
2022/11/04 16:23:03;;;;;;;11.87;10.73;;;10.80;1.00;;;;;;6297140;28;20243;-49
2022/11/04 16:26:07;;;;;;;11.63;10.83;;;10.80;1.00;;;;;;6300039;28;20783;-54
2022/11/04 16:29:17;;;;;;;11.53;10.53;;;10.80;1.00;;;;;;6282428;28;20518;-53
2022/11/04 16:32:25;;;;;;;12.03;10.93;;;10.80;1.00;;;;;;6289029;28;20241;-55
2022/11/04 16:35:28;;;;;;;11.17;10.33;;;10.80;1.00;;;;;;6295632;28;20232;-53
2022/11/04 16:38:31;;;;;;;11.67;10.80;;;10.80;1.00;;;;;;6301112;28;20666;-54
2022/11/04 16:41:37;;;;;;;11.13;10.43;;;10.80;1.00;;;;;;6289941;28;20757;-54
2022/11/04 16:44:40;;;;;;;12.37;11.47;;;10.80;1.00;;;;;;6286411;28;20722;-54